Time;durP1;ratioP1;P1;durP2;ratioP2;P2;SDS_P1;SDS_P2;PMS_P1;PMS_P2;Temp;Humidity;BMP_temperature;BMP_pressure;BME280_temperature;BME280_humidity;BME280_pressure;Samples;Min_cycle;Max_cycle;Signal;HPM_P1;HPM_P2
2022/06/16 00:00:19;;;;;;;7.22;5.28;;;;;;;12.73;100.00;93233.06;2089567;28;20025;-86
2022/06/16 00:01:20;;;;;;;5.85;5.13;;;;;;;12.70;100.00;93225.09;2098505;28;20082;-85
2022/06/16 00:02:21;;;;;;;7.07;5.60;;;;;;;12.70;100.00;93225.09;2097863;28;20131;-88
2022/06/16 00:03:23;;;;;;;10.00;5.68;;;;;;;12.72;100.00;93228.09;2089621;28;20600;-84
2022/06/16 00:04:25;;;;;;;7.47;5.65;;;;;;;12.74;100.00;93226.50;2082217;28;20030;-85
2022/06/16 00:05:29;;;;;;;8.88;5.25;;;;;;;12.78;100.00;93224.47;2092814;28;20036;-88
2022/06/16 00:06:30;;;;;;;8.95;4.95;;;;;;;12.76;100.00;93226.06;2107117;28;20099;-87
2022/06/16 00:07:31;;;;;;;7.38;5.18;;;;;;;12.78;100.00;93223.72;2106891;28;20138;-87
2022/06/16 00:08:32;;;;;;;6.95;5.78;;;;;;;12.67;100.00;93217.91;2098561;28;20650;-87
2022/06/16 00:09:33;;;;;;;7.53;5.25;;;;;;;12.59;100.00;93220.75;2090547;28;20055;-84
2022/06/16 00:10:35;;;;;;;8.98;5.57;;;;;;;12.65;100.00;93220.25;2106651;28;20114;-84
2022/06/16 00:11:36;;;;;;;5.97;5.38;;;;;;;12.58;100.00;93213.91;2098370;28;20025;-87
2022/06/16 00:12:38;;;;;;;12.60;5.95;;;;;;;12.64;100.00;93218.75;2090253;28;20490;-84
2022/06/16 00:13:39;;;;;;;8.55;5.32;;;;;;;12.65;100.00;93220.25;2098580;28;20036;-84
2022/06/16 00:14:41;;;;;;;7.80;5.35;;;;;;;12.61;100.00;93215.00;2098574;28;20020;-86
2022/06/16 00:15:43;;;;;;;7.88;5.32;;;;;;;12.61;100.00;93209.63;2098460;28;20119;-85
2022/06/16 00:16:45;;;;;;;8.05;6.28;;;;;;;12.59;100.00;93215.41;2090133;28;20028;-85
2022/06/16 00:17:48;;;;;;;12.10;5.40;;;;;;;12.55;100.00;93222.78;2087471;28;20386;-87
2022/06/16 00:18:49;;;;;;;7.07;5.72;;;;;;;12.53;100.00;93211.75;2082389;28;20033;-85
2022/06/16 00:19:52;;;;;;;7.53;4.85;;;;;;;12.54;100.00;93209.81;2082152;28;20402;-84
2022/06/16 00:20:53;;;;;;;9.55;5.88;;;;;;;12.55;100.00;93212.06;2090150;28;20112;-84
2022/06/16 00:21:54;;;;;;;7.65;5.28;;;;;;;12.57;100.00;93217.03;2085284;28;20021;-85
2022/06/16 00:22:55;;;;;;;7.68;5.18;;;;;;;12.57;100.00;93215.09;2090211;28;20520;-86
2022/06/16 00:23:57;;;;;;;5.88;5.30;;;;;;;12.53;100.00;93211.00;2098270;28;20032;-84
2022/06/16 00:24:59;;;;;;;12.52;5.35;;;;;;;12.48;100.00;93204.22;2098565;28;20032;-86
2022/06/16 00:26:00;;;;;;;6.93;5.00;;;;;;;12.47;100.00;93202.75;2093502;28;20059;-84
2022/06/16 00:27:02;;;;;;;6.65;5.32;;;;;;;12.50;100.00;93203.81;2098541;28;20449;-85
2022/06/16 00:28:03;;;;;;;11.52;5.20;;;;;;;12.45;100.00;93207.00;2106841;28;20472;-87
2022/06/16 00:29:04;;;;;;;7.93;5.40;;;;;;;12.50;100.00;93203.81;2106899;28;20020;-90
2022/06/16 00:30:07;;;;;;;9.25;5.82;;;;;;;12.51;100.00;93197.25;2098309;28;20504;-86
2022/06/16 00:31:12;;;;;;;7.82;5.03;;;;;;;12.45;100.00;93207.00;2106934;28;20016;-83
2022/06/16 00:32:13;;;;;;;8.18;5.65;;;;;;;12.45;100.00;93210.44;2115345;28;20090;-87
2022/06/16 00:33:14;;;;;;;8.93;5.40;;;;;;;12.44;100.00;93203.56;2098362;28;20024;-89
2022/06/16 00:34:15;;;;;;;6.68;5.07;;;;;;;12.50;100.00;93201.88;2090187;28;20937;-84
2022/06/16 00:35:16;;;;;;;5.90;4.80;;;;;;;12.50;100.00;93204.56;2106563;28;20024;-88
2022/06/16 00:36:18;;;;;;;7.00;5.22;;;;;;;12.46;100.00;93203.13;2098107;28;20047;-82
2022/06/16 00:37:19;;;;;;;5.85;5.28;;;;;;;12.40;100.00;93200.25;2090230;28;20032;-85
2022/06/16 00:38:23;;;;;;;6.68;5.63;;;;;;;12.37;100.00;93198.41;2098457;28;20077;-87
2022/06/16 00:39:24;;;;;;;6.30;4.53;;;;;;;12.37;100.00;93195.72;2107219;28;20081;-82
2022/06/16 00:40:25;;;;;;;8.15;5.47;;;;;;;12.33;100.00;93197.75;2095561;28;20074;-87
2022/06/16 00:41:26;;;;;;;9.02;4.95;;;;;;;12.35;100.00;93196.16;2081778;28;20029;-85
2022/06/16 00:42:27;;;;;;;8.98;5.35;;;;;;;12.31;100.00;93192.81;2090055;28;20029;-83
2022/06/16 00:43:29;;;;;;;5.35;4.85;;;;;;;12.30;100.00;93199.34;2103249;28;20791;-86
2022/06/16 00:44:30;;;;;;;9.45;5.30;;;;;;;12.26;100.00;93195.28;2098117;28;20032;-87
2022/06/16 00:45:43;;;;;;;8.65;5.75;;;;;;;12.27;100.00;93194.84;2089595;28;20028;-85
2022/06/16 00:46:44;;;;;;;6.45;5.10;;;;;;;12.32;100.00;93190.88;2085087;28;20056;-86
2022/06/16 00:47:45;;;;;;;5.25;4.72;;;;;;;12.30;100.00;93198.59;2103460;28;20019;-86
2022/06/16 00:48:53;;;;;;;5.28;4.78;;;;;;;12.26;100.00;93197.94;2106480;28;20035;-87
2022/06/16 00:49:59;;;;;;;7.22;4.97;;;;;;;12.25;100.00;93204.50;2100014;28;20107;-87
2022/06/16 00:51:09;;;;;;;6.35;5.20;;;;;;;12.18;100.00;93194.69;2098771;28;20025;-87
2022/06/16 00:52:31;;;;;;;7.00;4.70;;;;;;;12.19;100.00;93198.88;2092081;28;20036;-85
2022/06/16 00:53:34;;;;;;;5.63;4.88;;;;;;;12.22;100.00;93198.03;2101033;28;20020;-88
2022/06/16 00:54:41;;;;;;;5.28;4.40;;;;;;;12.26;100.00;93190.66;2093948;28;20028;-88
2022/06/16 00:55:44;;;;;;;6.70;4.90;;;;;;;12.22;100.00;93194.63;2099032;28;20091;-87
2022/06/16 00:56:48;;;;;;;6.95;4.90;;;;;;;12.27;100.00;93186.03;2098427;28;20027;-88
2022/06/16 00:57:50;;;;;;;9.85;4.78;;;;;;;12.21;100.00;93193.88;2092062;28;20032;-85
2022/06/16 00:59:03;;;;;;;5.57;5.07;;;;;;;12.20;100.00;93186.22;2090066;28;20090;-87
2022/06/16 01:00:15;;;;;;;6.68;4.50;;;;;;;12.15;100.00;93187.50;2093367;28;20021;-85
2022/06/16 01:01:20;;;;;;;6.75;4.47;;;;;;;12.00;100.00;93189.81;2092364;28;20048;-85
2022/06/16 01:02:25;;;;;;;8.57;4.95;;;;;;;11.98;100.00;93191.41;2098893;28;20029;-84
2022/06/16 01:04:52;;;;;;;6.70;4.72;;;;;;;12.06;100.00;93192.72;2095075;28;20021;-85
2022/06/16 01:05:53;;;;;;;6.30;4.85;;;;;;;12.08;100.00;93185.03;2090303;28;20106;-83
2022/06/16 01:06:56;;;;;;;6.80;4.57;;;;;;;12.11;100.00;93181.47;2089689;28;20090;-85
2022/06/16 01:07:57;;;;;;;7.53;5.03;;;;;;;12.13;100.00;93187.19;2098423;28;20028;-87
2022/06/16 01:09:14;;;;;;;5.47;4.70;;;;;;;12.19;100.00;93182.06;2089876;28;20055;-82
2022/06/16 01:10:17;;;;;;;6.55;4.68;;;;;;;12.16;100.00;93189.03;2093996;28;20032;-85
2022/06/16 01:13:47;;;;;;;5.45;4.55;;;;;;;12.05;100.00;93183.94;2103866;28;20476;-84
2022/06/16 01:15:01;;;;;;;6.40;4.43;;;;;;;12.10;100.00;93183.41;2106096;28;20479;-85
2022/06/16 01:16:21;;;;;;;5.80;4.82;;;;;;;12.10;100.00;93183.41;2097826;28;20020;-84
2022/06/16 01:17:38;;;;;;;6.22;4.88;;;;;;;12.05;100.00;93183.19;2092396;28;20025;-89
2022/06/16 01:19:06;;;;;;;6.72;4.90;;;;;;;12.16;100.00;93185.56;2085900;28;20104;-83
2022/06/16 01:20:12;;;;;;;7.47;4.68;;;;;;;12.18;100.00;93188.59;2097008;28;20024;-86
2022/06/16 01:21:16;;;;;;;7.00;4.78;;;;;;;12.15;100.00;93181.41;2098791;28;20035;-88
2022/06/16 01:22:31;;;;;;;7.55;5.43;;;;;;;12.19;100.00;93195.44;2096669;28;20465;-82
2022/06/16 01:23:50;;;;;;;8.07;5.20;;;;;;;12.14;100.00;93187.94;2095989;28;20029;-87
2022/06/16 01:25:21;;;;;;;6.97;5.13;;;;;;;12.16;100.00;93188.25;2094682;28;20105;-84
2022/06/16 01:26:28;;;;;;;7.57;5.47;;;;;;;12.16;100.00;93182.88;2101896;28;20066;-84
2022/06/16 01:27:51;;;;;;;6.78;4.80;;;;;;;12.14;100.00;93185.25;2098434;28;20028;-84
2022/06/16 01:29:05;;;;;;;7.78;5.45;;;;;;;12.12;100.00;93191.03;2092528;28;20020;-87
2022/06/16 01:30:16;;;;;;;6.88;4.88;;;;;;;12.12;100.00;93188.38;2099684;28;20028;-87
2022/06/16 01:31:33;;;;;;;6.03;5.28;;;;;;;12.04;100.00;93184.38;2090706;28;20032;-82
2022/06/16 01:33:07;;;;;;;7.70;5.28;;;;;;;11.93;100.00;93189.25;2085884;28;20093;-86
2022/06/16 01:34:42;;;;;;;6.88;5.13;;;;;;;11.87;100.00;93185.56;2098813;28;20052;-83
2022/06/16 01:35:46;;;;;;;5.60;4.90;;;;;;;11.92;100.00;93185.81;2094107;28;20020;-82
2022/06/16 01:37:30;;;;;;;10.05;5.15;;;;;;;11.87;100.00;93183.66;2099708;28;20693;-83
2022/06/16 01:38:49;;;;;;;8.82;5.47;;;;;;;11.95;100.00;93174.25;2090339;28;20658;-82
2022/06/16 01:40:42;;;;;;;8.10;5.47;;;;;;;11.93;100.00;93184.63;2110171;28;20042;-85
2022/06/16 01:42:27;;;;;;;7.75;5.13;;;;;;;11.84;100.00;93189.84;2088849;28;20029;-85
2022/06/16 01:43:33;;;;;;;7.97;5.35;;;;;;;11.82;100.00;93184.13;2077220;28;20120;-89
2022/06/16 01:44:55;;;;;;;10.13;5.25;;;;;;;11.92;100.00;93180.44;2106765;28;20055;-85
2022/06/16 01:46:13;;;;;;;11.70;5.90;;;;;;;11.96;100.00;93177.69;2106292;28;20048;-82
2022/06/16 01:47:18;;;;;;;6.47;5.05;;;;;;;12.01;100.00;93174.50;2106212;28;20027;-86
2022/06/16 01:48:21;;;;;;;7.35;4.68;;;;;;;12.04;100.00;93173.66;2106092;28;20719;-82
2022/06/16 01:49:27;;;;;;;6.20;4.88;;;;;;;12.02;100.00;93168.69;2097535;28;20717;-85
2022/06/16 01:50:53;;;;;;;8.73;5.40;;;;;;;11.92;100.00;93169.72;2088722;28;20025;-84
2022/06/16 01:52:05;;;;;;;8.70;5.30;;;;;;;11.95;100.00;93171.56;2105589;28;20039;-87
2022/06/16 01:53:17;;;;;;;8.07;5.68;;;;;;;11.97;100.00;93168.47;2099243;28;20084;-85
2022/06/16 01:54:43;;;;;;;8.48;4.78;;;;;;;12.00;100.00;93165.69;2090892;28;20017;-85
2022/06/16 01:55:54;;;;;;;9.98;5.28;;;;;;;12.02;100.00;93171.38;2091662;28;20034;-82
2022/06/16 01:57:14;;;;;;;6.93;5.47;;;;;;;12.01;100.00;93169.13;2098491;28;20440;-87
2022/06/16 01:58:27;;;;;;;8.05;5.90;;;;;;;11.97;100.00;93163.84;2100429;28;20028;-83
2022/06/16 01:59:38;;;;;;;8.20;5.13;;;;;;;11.99;100.00;93152.75;2091171;28;20409;-85
2022/06/16 02:00:42;;;;;;;8.68;5.22;;;;;;;11.98;100.00;93151.22;2092080;28;20456;-83
2022/06/16 02:01:49;;;;;;;7.50;5.50;;;;;;;11.94;100.00;93154.00;2095162;28;20413;-85
2022/06/16 02:03:01;;;;;;;6.47;5.10;;;;;;;11.98;100.00;93156.56;2106265;28;20023;-84
2022/06/16 02:04:09;;;;;;;7.70;4.90;;;;;;;11.96;100.00;93145.53;2106077;28;20377;-87
2022/06/16 02:05:32;;;;;;;5.40;4.90;;;;;;;11.86;100.00;93155.38;2090391;28;20024;-87
2022/06/16 02:06:37;;;;;;;8.43;5.03;;;;;;;11.79;100.00;93150.16;2095302;28;20028;-85
2022/06/16 02:07:45;;;;;;;8.57;5.10;;;;;;;11.78;100.00;93152.09;2098149;28;20021;-87
2022/06/16 02:08:53;;;;;;;13.20;5.50;;;;;;;11.73;100.00;93149.16;2098743;28;20021;-85
2022/06/16 02:09:58;;;;;;;9.55;5.63;;;;;;;11.68;100.00;93144.34;2091146;28;20072;-87
2022/06/16 02:11:38;;;;;;;12.57;5.32;;;;;;;11.76;100.00;93143.69;2098532;28;20028;-85
2022/06/16 02:12:58;;;;;;;8.48;5.32;;;;;;;11.75;100.00;93149.50;2108771;28;20031;-90
2022/06/16 02:13:59;;;;;;;;;;;;;;;11.77;100.00;93147.91;2098134;28;20040;-86
2022/06/16 02:15:08;;;;;;;5.82;5.28;;;;;;;11.93;100.00;93135.66;2089144;28;19963;-86
2022/06/16 02:16:22;;;;;;;7.60;6.05;;;;;;;11.79;100.00;93134.84;2107253;28;20030;-89
2022/06/16 02:17:23;;;;;;;7.60;5.32;;;;;;;11.73;100.00;93141.88;2097355;28;20054;-84
2022/06/16 02:18:31;;;;;;;6.55;5.15;;;;;;;11.76;100.00;93140.28;2081236;28;20055;-87
2022/06/16 02:19:32;;;;;;;5.93;4.70;;;;;;;11.79;100.00;93150.16;2098806;28;20039;-84
2022/06/16 02:20:59;;;;;;;11.48;5.50;;;;;;;11.78;100.00;93145.97;2097356;28;20027;-84
2022/06/16 02:22:01;;;;;;;7.10;5.38;;;;;;;11.75;100.00;93144.88;2087597;28;20036;-86
2022/06/16 02:23:03;;;;;;;7.32;5.03;;;;;;;11.72;100.00;93150.31;2081525;28;20109;-85
2022/06/16 02:24:06;;;;;;;8.95;4.93;;;;;;;11.74;100.00;93148.00;2105718;28;20024;-89
2022/06/16 02:25:07;;;;;;;8.48;5.60;;;;;;;11.81;100.00;93148.56;2114051;28;20031;-82
2022/06/16 02:26:08;;;;;;;6.57;5.00;;;;;;;11.82;100.00;93141.28;2097519;28;20118;-86
2022/06/16 02:27:09;;;;;;;9.35;5.43;;;;;;;11.83;100.00;93148.16;2093884;28;20060;-90
2022/06/16 02:28:12;;;;;;;7.85;5.25;;;;;;;11.86;100.00;93157.28;2096908;28;20027;-89
2022/06/16 02:29:37;;;;;;;7.18;4.97;;;;;;;11.94;100.00;93151.31;2089657;28;20064;-87
2022/06/16 02:31:03;;;;;;;6.07;4.85;;;;;;;11.98;100.00;93146.59;2087730;28;20462;-84
2022/06/16 02:32:16;;;;;;;8.25;5.15;;;;;;;12.09;100.00;93140.97;2100296;28;20758;-83
2022/06/16 02:33:26;;;;;;;6.78;5.22;;;;;;;12.17;100.00;93144.22;2097353;28;20413;-86
2022/06/16 02:34:40;;;;;;;7.65;4.80;;;;;;;12.18;100.00;93143.03;2083832;28;20132;-89
2022/06/16 02:35:47;;;;;;;6.03;5.25;;;;;;;12.20;100.00;93149.47;2100805;28;20461;-84
2022/06/16 02:37:13;;;;;;;7.45;4.68;;;;;;;12.24;100.00;93149.38;2105906;28;20476;-85
2022/06/16 02:38:36;;;;;;;8.63;5.00;;;;;;;12.35;100.00;93153.25;2100871;28;20416;-87
2022/06/16 02:39:55;;;;;;;8.45;5.50;;;;;;;12.39;100.00;93155.84;2106032;28;20382;-85
2022/06/16 02:41:10;;;;;;;7.28;4.80;;;;;;;12.51;100.00;93162.41;2094327;28;20029;-90
2022/06/16 02:42:19;;;;;;;7.10;4.95;;;;;;;12.57;100.00;93172.19;2099359;28;20055;-86
2022/06/16 02:43:57;;;;;;;5.68;4.55;;;;;;;12.63;100.00;93180.44;2099420;28;20031;-85
2022/06/16 02:45:20;;;;;;;6.75;4.90;;;;;;;12.66;100.00;93171.56;2102449;28;20059;-84
2022/06/16 02:46:51;;;;;;;7.25;4.97;;;;;;;12.73;100.00;93190.13;2103243;28;20070;-89
2022/06/16 02:48:13;;;;;;;7.93;4.88;;;;;;;12.79;100.00;93190.34;2101715;28;20020;-83
2022/06/16 02:49:26;;;;;;;6.53;5.22;;;;;;;12.92;100.00;93195.72;2094782;28;20090;-88
2022/06/16 02:50:45;;;;;;;6.40;5.18;;;;;;;13.05;100.00;93193.81;2100807;28;20115;-89
2022/06/16 02:51:58;;;;;;;8.05;5.38;;;;;;;12.95;100.00;93194.84;2105697;28;20432;-86
2022/06/16 02:53:14;;;;;;;8.95;5.03;;;;;;;13.19;100.00;93203.34;2092277;28;20064;-84
2022/06/16 02:54:21;;;;;;;7.68;5.47;;;;;;;13.01;100.00;93199.28;2085061;28;20025;-90
2022/06/16 02:55:30;;;;;;;6.93;5.10;;;;;;;12.96;100.00;93191.75;2084699;28;20022;-86
2022/06/16 02:56:44;;;;;;;7.07;5.18;;;;;;;12.93;100.00;93197.97;2091605;28;20025;-85
2022/06/16 02:57:55;;;;;;;10.43;4.93;;;;;;;12.89;100.00;93193.91;2085842;28;20442;-88
2022/06/16 02:59:02;;;;;;;6.88;5.70;;;;;;;12.91;100.00;93194.22;2106027;28;20132;-86
2022/06/16 03:00:13;;;;;;;13.00;6.22;;;;;;;12.96;100.00;93194.44;2114004;28;20068;-88
2022/06/16 03:01:15;;;;;;;10.13;5.78;;;;;;;13.01;100.00;93182.41;2092749;28;20486;-83
2022/06/16 03:02:20;;;;;;;6.88;5.43;;;;;;;13.00;100.00;93189.72;2100166;28;20036;-86
2022/06/16 03:03:29;;;;;;;6.43;5.72;;;;;;;12.94;100.00;93174.56;2097949;28;20110;-86
2022/06/16 03:04:49;;;;;;;9.05;5.63;;;;;;;12.94;100.00;93169.97;2098562;28;20028;-84
2022/06/16 03:05:54;;;;;;;8.18;5.38;;;;;;;12.92;100.00;93166.97;2100002;28;20024;-85
2022/06/16 03:06:57;;;;;;;6.85;5.82;;;;;;;12.89;100.00;93165.13;2089452;28;20063;-83
2022/06/16 03:07:58;;;;;;;5.80;5.20;;;;;;;12.94;100.00;93175.31;2082326;28;20478;-84
2022/06/16 03:09:02;;;;;;;7.30;5.57;;;;;;;13.07;100.00;93172.66;2090746;28;20037;-87
2022/06/16 03:10:04;;;;;;;5.95;5.25;;;;;;;13.01;100.00;93169.75;2099068;28;20031;-83
2022/06/16 03:11:08;;;;;;;12.57;5.13;;;;;;;13.01;100.00;93167.06;2107198;28;20165;-83
2022/06/16 03:12:11;;;;;;;6.50;5.00;;;;;;;13.01;100.00;93161.72;2090966;28;20224;-84
2022/06/16 03:13:26;;;;;;;5.38;4.95;;;;;;;13.02;100.00;93165.13;2090939;28;20044;-84
2022/06/16 03:14:27;;;;;;;8.95;5.40;;;;;;;13.02;100.00;93157.09;2111441;28;20719;-85
2022/06/16 03:15:28;;;;;;;7.22;5.57;;;;;;;13.05;100.00;93154.31;2093327;28;20044;-82
2022/06/16 03:16:30;;;;;;;7.35;5.53;;;;;;;13.16;100.00;93156.66;2107224;28;20024;-85
2022/06/16 03:17:31;;;;;;;6.20;5.47;;;;;;;13.21;100.00;93163.41;2094670;28;20024;-88
2022/06/16 03:18:32;;;;;;;6.22;5.60;;;;;;;13.23;100.00;93166.44;2099066;28;20136;-85
2022/06/16 03:19:33;;;;;;;7.00;5.00;;;;;;;13.18;100.00;93165.03;2090695;28;20485;-88
2022/06/16 03:20:34;;;;;;;7.57;5.32;;;;;;;13.15;100.00;93157.09;2098878;28;20596;-87
2022/06/16 03:21:35;;;;;;;5.32;4.72;;;;;;;13.14;100.00;93159.03;2098557;28;20028;-85
2022/06/16 03:22:36;;;;;;;7.57;5.28;;;;;;;13.08;100.00;93164.19;2107281;28;20027;-83
2022/06/16 03:23:37;;;;;;;7.75;5.63;;;;;;;13.09;100.00;93163.00;2107158;28;20050;-86
2022/06/16 03:24:38;;;;;;;12.55;5.18;;;;;;;13.10;100.00;93159.13;2107004;28;20035;-89
2022/06/16 03:25:41;;;;;;;8.30;5.65;;;;;;;13.04;100.00;93155.50;2090490;28;20679;-85
2022/06/16 03:26:42;;;;;;;7.13;5.70;;;;;;;12.97;100.00;93173.72;2090706;28;20028;-87
2022/06/16 03:27:42;;;;;;;7.03;5.72;;;;;;;13.03;100.00;93172.00;2090537;28;20482;-87
2022/06/16 03:28:44;;;;;;;10.23;5.65;;;;;;;13.02;100.00;93167.81;2082623;28;20121;-83
2022/06/16 03:29:45;;;;;;;8.27;5.30;;;;;;;13.05;100.00;93170.41;2090887;28;20390;-84
2022/06/16 03:30:46;;;;;;;7.43;5.22;;;;;;;13.07;100.00;93162.66;2098767;28;20035;-84
2022/06/16 03:31:47;;;;;;;8.90;5.65;;;;;;;13.09;100.00;93165.69;2098620;28;20523;-83
2022/06/16 03:32:48;;;;;;;9.38;5.60;;;;;;;13.11;100.00;93160.63;2104580;28;20640;-88
2022/06/16 03:33:55;;;;;;;7.75;5.68;;;;;;;13.14;100.00;93161.69;2098473;28;20027;-83
2022/06/16 03:34:56;;;;;;;8.93;5.53;;;;;;;13.12;100.00;93158.69;2091267;28;20029;-84
2022/06/16 03:35:58;;;;;;;6.47;5.28;;;;;;;13.08;100.00;93158.81;2082538;28;20028;-85
2022/06/16 03:37:00;;;;;;;6.88;6.10;;;;;;;13.11;100.00;93160.63;2099188;28;20054;-90
2022/06/16 03:39:21;;;;;;;7.45;5.35;;;;;;;13.20;100.00;93162.66;2101637;28;20020;-87
2022/06/16 03:40:22;;;;;;;7.93;6.15;;;;;;;13.17;100.00;93163.53;2098857;28;20035;-86
2022/06/16 03:41:23;;;;;;;7.82;5.60;;;;;;;13.17;100.00;93160.84;2092739;28;20120;-83
2022/06/16 03:42:25;;;;;;;7.07;5.18;;;;;;;13.19;100.00;93163.84;2098730;28;20028;-86
2022/06/16 03:43:26;;;;;;;8.50;5.70;;;;;;;13.24;100.00;93163.31;2098324;28;20370;-86
2022/06/16 03:44:28;;;;;;;9.77;5.15;;;;;;;13.24;100.00;93166.00;2090510;28;20055;-86
2022/06/16 03:45:29;;;;;;;8.00;5.25;;;;;;;13.22;100.00;93157.66;2090533;28;20027;-84
2022/06/16 03:46:30;;;;;;;6.95;5.35;;;;;;;13.20;100.00;93162.66;2082353;28;20382;-84
2022/06/16 03:47:31;;;;;;;11.05;5.55;;;;;;;13.23;100.00;93167.19;2090488;28;20053;-84
2022/06/16 03:48:32;;;;;;;7.78;5.40;;;;;;;13.23;100.00;93166.44;2098306;28;20027;-86
2022/06/16 03:49:33;;;;;;;7.82;5.40;;;;;;;13.21;100.00;93163.41;2098338;28;20032;-85
2022/06/16 03:50:35;;;;;;;10.77;5.72;;;;;;;13.19;100.00;93166.53;2090431;28;20021;-86
2022/06/16 03:51:36;;;;;;;6.40;5.80;;;;;;;13.22;100.00;93164.94;2089419;28;20025;-85
2022/06/16 03:52:37;;;;;;;6.57;5.63;;;;;;;13.17;100.00;93166.22;2086326;28;20063;-86
2022/06/16 03:53:38;;;;;;;7.10;5.25;;;;;;;13.23;100.00;93169.88;2106918;28;20500;-88
2022/06/16 03:54:43;;;;;;;6.00;5.40;;;;;;;13.17;100.00;93168.13;2115492;28;20477;-84
2022/06/16 03:55:44;;;;;;;8.25;5.60;;;;;;;13.14;100.00;93169.00;2106881;28;20021;-82
2022/06/16 03:56:45;;;;;;;9.63;5.72;;;;;;;13.22;100.00;93165.69;2098944;28;20488;-86
2022/06/16 03:57:46;;;;;;;6.50;5.20;;;;;;;13.19;100.00;93171.91;2098790;28;20036;-87
2022/06/16 03:58:52;;;;;;;10.25;5.60;;;;;;;13.16;100.00;93169.31;2098625;28;20032;-87
2022/06/16 03:59:54;;;;;;;6.35;5.75;;;;;;;13.12;100.00;93172.09;2099337;28;20433;-86
2022/06/16 04:00:56;;;;;;;5.65;5.15;;;;;;;13.10;100.00;93169.13;2107035;28;20032;-89
2022/06/16 04:01:57;;;;;;;9.48;6.07;;;;;;;13.07;100.00;93164.59;2106881;28;20136;-86
2022/06/16 04:04:19;;;;;;;6.22;5.40;;;;;;;12.95;100.00;93168.81;2109436;28;20081;-84
2022/06/16 04:05:20;;;;;;;7.85;5.53;;;;;;;12.92;100.00;93169.66;2106954;28;20472;-86
2022/06/16 04:06:21;;;;;;;6.60;5.90;;;;;;;12.94;100.00;93171.91;2090234;28;20424;-88
2022/06/16 04:07:22;;;;;;;6.28;5.63;;;;;;;13.06;100.00;93173.84;2107007;28;20106;-89
2022/06/16 04:08:23;;;;;;;5.55;5.00;;;;;;;13.02;100.00;93181.97;2107147;28;20035;-84
2022/06/16 04:09:24;;;;;;;7.88;6.32;;;;;;;13.02;100.00;93171.25;2090341;28;20063;-86
2022/06/16 04:10:26;;;;;;;9.90;5.47;;;;;;;13.03;100.00;93169.31;2082042;28;20025;-85
2022/06/16 04:11:27;;;;;;;9.13;5.47;;;;;;;12.94;100.00;93183.38;2082222;28;20025;-87
2022/06/16 04:12:28;;;;;;;7.78;5.80;;;;;;;12.90;100.00;93176.63;2090459;28;20067;-87
2022/06/16 04:13:29;;;;;;;6.07;5.47;;;;;;;12.89;100.00;93181.22;2090117;28;20084;-87
2022/06/16 04:14:30;;;;;;;7.80;5.80;;;;;;;12.91;100.00;93180.81;2090049;28;20025;-84
2022/06/16 04:15:51;;;;;;;7.78;5.80;;;;;;;12.89;100.00;93180.47;2098294;28;20047;-85
2022/06/16 04:16:54;;;;;;;6.28;5.45;;;;;;;12.83;100.00;93183.69;2103916;28;20568;-84
2022/06/16 04:17:56;;;;;;;6.40;5.22;;;;;;;12.88;100.00;93187.03;2096030;28;20020;-86
2022/06/16 04:18:59;;;;;;;9.05;6.45;;;;;;;12.93;100.00;93192.59;2090489;28;20036;-87
2022/06/16 04:20:13;;;;;;;8.18;5.70;;;;;;;13.02;100.00;93183.91;2082166;28;20025;-86
2022/06/16 04:21:14;;;;;;;8.85;6.32;;;;;;;13.04;100.00;93193.06;2085117;28;20414;-87
2022/06/16 04:22:15;;;;;;;8.40;6.40;;;;;;;13.23;100.00;93185.25;2088322;28;20032;-86
2022/06/16 04:23:16;;;;;;;7.13;6.03;;;;;;;13.24;100.00;93197.47;2081995;28;20040;-88
2022/06/16 04:24:18;;;;;;;11.57;6.18;;;;;;;13.34;100.00;93201.75;2090071;28;20028;-86
2022/06/16 04:25:23;;;;;;;15.07;7.20;;;;;;;13.37;100.00;93200.16;2090183;28;20024;-84
2022/06/16 04:26:24;;;;;;;9.50;6.55;;;;;;;13.41;100.00;93198.84;2083057;28;20052;-86
2022/06/16 04:27:25;;;;;;;6.75;5.80;;;;;;;13.52;100.00;93193.16;2090561;28;20122;-87
2022/06/16 04:28:27;;;;;;;10.10;6.28;;;;;;;13.53;100.00;93195.41;2090089;28;20029;-83
2022/06/16 04:29:29;;;;;;;10.73;6.30;;;;;;;13.52;100.00;93195.81;2082252;28;20540;-87
2022/06/16 04:30:31;;;;;;;8.43;5.63;;;;;;;13.53;100.00;93202.72;2082192;28;20583;-88
2022/06/16 04:31:33;;;;;;;8.60;5.80;;;;;;;13.55;100.00;93203.03;2082190;28;20021;-85
2022/06/16 04:32:34;;;;;;;7.72;5.72;;;;;;;13.58;100.00;93197.56;2081918;28;20728;-82
2022/06/16 04:33:35;;;;;;;7.90;5.55;;;;;;;13.54;100.00;93196.16;2090313;28;20086;-84
2022/06/16 04:34:37;;;;;;;8.07;5.90;;;;;;;13.55;100.00;93201.09;2089925;28;20113;-87
2022/06/16 04:35:38;;;;;;;8.63;5.80;;;;;;;13.60;100.00;93208.59;2082141;28;20064;-84
2022/06/16 04:36:41;;;;;;;6.10;5.50;;;;;;;13.62;100.00;93205.50;2098673;28;20024;-86
2022/06/16 04:37:42;;;;;;;7.18;5.80;;;;;;;13.65;100.00;93201.19;2098087;28;20032;-86
2022/06/16 04:38:44;;;;;;;9.30;5.68;;;;;;;13.74;100.00;93201.25;2090159;28;20022;-87
2022/06/16 04:39:45;;;;;;;6.70;5.65;;;;;;;13.71;100.00;93208.28;2083313;28;20025;-87
2022/06/16 04:40:46;;;;;;;10.18;6.10;;;;;;;13.70;100.00;93204.09;2105209;28;20485;-88
2022/06/16 04:41:47;;;;;;;7.00;6.03;;;;;;;13.67;100.00;93206.88;2098170;28;20025;-86
2022/06/16 04:42:48;;;;;;;6.82;6.13;;;;;;;13.69;100.00;93196.44;2098008;28;20016;-86
2022/06/16 04:43:49;;;;;;;8.30;6.47;;;;;;;13.69;100.00;93196.44;2096002;28;20028;-84
2022/06/16 04:44:50;;;;;;;7.72;5.88;;;;;;;13.63;100.00;93195.50;2104711;28;20055;-85
2022/06/16 04:45:51;;;;;;;8.65;5.88;;;;;;;13.62;100.00;93202.06;2098324;28;20400;-85
2022/06/16 04:46:52;;;;;;;8.38;6.20;;;;;;;13.66;100.00;93205.38;2106703;28;20039;-87
2022/06/16 04:47:53;;;;;;;10.85;6.13;;;;;;;13.69;100.00;93201.81;2098318;28;20656;-86
2022/06/16 04:48:54;;;;;;;7.75;6.28;;;;;;;13.73;100.00;93208.59;2098316;28;20400;-86
2022/06/16 04:49:56;;;;;;;6.90;6.15;;;;;;;13.73;100.00;93208.59;2098384;28;20025;-85
2022/06/16 04:50:57;;;;;;;8.13;5.93;;;;;;;13.76;100.00;93204.28;2099016;28;20548;-86
2022/06/16 04:51:58;;;;;;;12.50;6.82;;;;;;;13.82;100.00;93205.97;2094803;28;20024;-84
2022/06/16 04:52:59;;;;;;;8.63;6.45;;;;;;;13.87;100.00;93207.38;2091798;28;20025;-83
2022/06/16 04:54:00;;;;;;;7.47;6.45;;;;;;;13.88;100.00;93200.81;2114893;28;20016;-82
2022/06/16 04:55:01;;;;;;;8.55;6.43;;;;;;;13.92;100.00;93200.72;2112218;28;20031;-87
2022/06/16 04:56:04;;;;;;;13.32;6.40;;;;;;;13.97;100.00;93197.47;2097652;28;20032;-86
2022/06/16 04:57:07;;;;;;;11.05;6.80;;;;;;;14.01;100.00;93201.53;2090033;28;20033;-87
2022/06/16 04:58:09;;;;;;;9.60;6.72;;;;;;;14.06;100.00;93205.59;2097583;28;20028;-86
2022/06/16 04:59:13;;;;;;;9.93;6.80;;;;;;;14.09;100.00;93208.19;2101751;28;20081;-84
2022/06/16 05:00:16;;;;;;;8.88;6.75;;;;;;;14.15;100.00;93199.56;2105708;28;20020;-87
2022/06/16 05:01:17;;;;;;;9.05;6.47;;;;;;;14.11;100.00;93210.41;2105884;28;20027;-84
2022/06/16 05:02:18;;;;;;;7.07;6.38;;;;;;;14.17;100.00;93203.28;2098396;28;20047;-84
2022/06/16 05:03:22;;;;;;;8.55;6.63;;;;;;;14.19;100.00;93198.25;2090456;28;20051;-84
2022/06/16 05:04:23;;;;;;;14.05;6.53;;;;;;;14.25;100.00;93201.88;2096455;28;20055;-87
2022/06/16 05:05:24;;;;;;;8.63;6.78;;;;;;;14.31;100.00;93204.75;2089994;28;20024;-84
2022/06/16 05:06:25;;;;;;;8.45;6.43;;;;;;;14.35;100.00;93202.69;2090273;28;20025;-83
2022/06/16 05:07:26;;;;;;;10.30;7.00;;;;;;;14.35;100.00;93198.06;2098110;28;20023;-86
2022/06/16 05:08:27;;;;;;;10.80;7.35;;;;;;;14.32;100.00;93190.88;2089401;28;20044;-85
2022/06/16 05:09:28;;;;;;;10.43;6.97;;;;;;;14.36;100.00;93196.13;2097721;28;20020;-86
2022/06/16 05:10:29;;;;;;;10.27;6.53;;;;;;;14.38;100.00;93191.06;2097480;28;20078;-86
2022/06/16 05:11:31;;;;;;;10.32;7.28;;;;;;;14.41;100.00;93195.56;2092727;28;20028;-85
2022/06/16 05:12:31;;;;;;;8.40;6.60;;;;;;;14.46;100.00;93188.88;2089847;28;20108;-87
2022/06/16 05:13:32;;;;;;;11.63;7.15;;;;;;;14.49;100.00;93188.78;2097448;28;20024;-87
2022/06/16 05:14:33;;;;;;;10.18;7.07;;;;;;;14.52;100.00;93192.53;2105727;28;20024;-86